createdAt,value
2022-12-04T00:00:32.027Z,101127.31
2022-12-04T00:03:35.215Z,101124.06
2022-12-04T00:06:37.510Z,101094.91
2022-12-04T00:09:40.035Z,101097.91
2022-12-04T00:12:42.310Z,101087.28
2022-12-04T00:15:45.104Z,101097.38
2022-12-04T00:18:47.544Z,101110.44
2022-12-04T00:21:52.291Z,101126.84
2022-12-04T00:24:54.522Z,101117.59
2022-12-04T00:27:57.449Z,101124.13
2022-12-04T00:30:59.928Z,101121.97
2022-12-04T00:34:02.529Z,101131.78
2022-12-04T00:37:04.817Z,101111.94
2022-12-04T00:40:08.167Z,101108.37
2022-12-04T00:43:10.383Z,101112.19
2022-12-04T00:46:14.268Z,101116.53
2022-12-04T00:49:16.575Z,101096.94
2022-12-04T00:52:19.130Z,101125.78
2022-12-04T00:55:21.390Z,101101.84
2022-12-04T00:58:23.999Z,101100.47
2022-12-04T01:01:30.419Z,101109.50
2022-12-04T01:04:33.129Z,101099.41
2022-12-04T01:07:35.410Z,101097.78
2022-12-04T01:10:42.223Z,101116.56
2022-12-04T01:13:45.087Z,101096.94
2022-12-04T01:16:47.671Z,101111.72
2022-12-04T01:19:50.179Z,101094.22
2022-12-04T01:22:52.762Z,101097.78
2022-12-04T01:25:58.400Z,101111.66
2022-12-04T01:29:01.971Z,101125.78
2022-12-04T01:32:04.625Z,101130.47
2022-12-04T01:35:07.510Z,101098.31
2022-12-04T01:38:09.729Z,101136.72
2022-12-04T01:41:14.038Z,101104.03
2022-12-04T01:44:21.174Z,101096.38
2022-12-04T01:47:23.742Z,101118.72
2022-12-04T01:50:26.001Z,101126.91
2022-12-04T01:53:30.343Z,101102.13
2022-12-04T01:56:43.207Z,101091.78
2022-12-04T01:59:50.433Z,101131.28
2022-12-04T02:02:53.021Z,101093.12
2022-12-04T02:05:55.776Z,101092.03
2022-12-04T02:08:58.038Z,101087.13
2022-12-04T02:12:10.906Z,101087.69
2022-12-04T02:15:39.413Z,101111.41
2022-12-04T02:19:06.650Z,101107.03
2022-12-04T02:22:29.972Z,101107.87
2022-12-04T02:25:47.935Z,101082.00
2022-12-04T02:28:57.734Z,101106.56
2022-12-04T02:32:15.282Z,101121.03
2022-12-04T02:35:41.833Z,101108.47
2022-12-04T02:38:54.237Z,101110.66
2022-12-04T02:42:05.089Z,101067.06
2022-12-04T02:45:20.186Z,101075.50
2022-12-04T02:48:25.514Z,101108.47
2022-12-04T02:51:34.482Z,101111.22
2022-12-04T02:54:41.395Z,101117.75
2022-12-04T02:57:50.819Z,101117.22
2022-12-04T03:00:55.885Z,101083.69
2022-12-04T03:04:03.889Z,101080.97
2022-12-04T03:07:16.888Z,101081.25
2022-12-04T03:10:27.910Z,101100.06
2022-12-04T03:13:37.930Z,101075.81
2022-12-04T03:16:42.402Z,101088.09
2022-12-04T03:19:54.543Z,101073.09
2022-12-04T03:23:05.194Z,101097.63
2022-12-04T03:26:26.501Z,101069.28
2022-12-04T03:29:39.342Z,101099.81
2022-12-04T03:33:13.046Z,101092.72
2022-12-04T03:36:23.961Z,101102.28
2022-12-04T03:39:46.570Z,101103.91
2022-12-04T03:42:58.337Z,101073.12
2022-12-04T03:46:17.572Z,101102.28
2022-12-04T03:49:27.897Z,101088.66
2022-12-04T03:52:34.478Z,101074.22
2022-12-04T03:55:43.851Z,101005.28
2022-12-04T03:58:50.503Z,101109.66
2022-12-04T04:01:56.199Z,101089.19
2022-12-04T04:05:01.407Z,101110.75
2022-12-04T04:08:26.315Z,101109.91
2022-12-04T04:11:38.514Z,101105.56
2022-12-04T04:15:28.937Z,101079.69
2022-12-04T04:18:51.333Z,101102.28
2022-12-04T04:22:13.416Z,101092.22
2022-12-04T04:25:24.313Z,101106.38
2022-12-04T04:28:38.407Z,101091.66
2022-12-04T04:31:47.213Z,101108.03
2022-12-04T04:35:05.320Z,101078.03
2022-12-04T04:38:23.683Z,101112.13
2022-12-04T04:41:40.027Z,101106.94
2022-12-04T04:45:07.014Z,101095.22
2022-12-04T04:48:20.474Z,101108.56
2022-12-04T04:51:23.933Z,101101.19
2022-12-04T04:54:28.255Z,101106.38
2022-12-04T04:57:35.743Z,101081.56
2022-12-04T05:00:39.204Z,101070.97
2022-12-04T05:03:42.324Z,101103.09
2022-12-04T05:06:44.672Z,101110.75
2022-12-04T05:09:47.203Z,101087.59
2022-12-04T05:12:49.452Z,101112.63
2022-12-04T05:16:00.005Z,101109.34
2022-12-04T05:19:20.933Z,101096.28
2022-12-04T05:22:29.555Z,101104.72
2022-12-04T05:25:31.851Z,101097.66
2022-12-04T05:28:34.529Z,101088.09
2022-12-04T05:31:36.797Z,101108.56
2022-12-04T05:34:39.558Z,101078.03
2022-12-04T05:37:41.794Z,101106.38
2022-12-04T05:40:44.322Z,101114.28
2022-12-04T05:43:46.584Z,101084.03
2022-12-04T05:46:52.030Z,101093.56
2022-12-04T05:49:54.623Z,101083.47
2022-12-04T05:52:57.363Z,101064.41
2022-12-04T05:56:01.954Z,101087.84
2022-12-04T05:59:04.471Z,101072.59
2022-12-04T06:02:06.763Z,101104.22
2022-12-04T06:05:09.326Z,101077.78
2022-12-04T06:08:12.159Z,101104.22
2022-12-04T06:11:18.950Z,101080.22
2022-12-04T06:14:21.168Z,101105.56
2022-12-04T06:17:23.837Z,101093.28
2022-12-04T06:20:26.081Z,101080.22
2022-12-04T06:23:28.597Z,101122.72
2022-12-04T06:26:30.834Z,101124.94
2022-12-04T06:29:33.917Z,101124.94
2022-12-04T06:32:36.116Z,101098.75
2022-12-04T06:35:38.640Z,101119.47
2022-12-04T06:38:41.419Z,101116.75
2022-12-04T06:41:43.920Z,101104.22
2022-12-04T06:44:46.283Z,101130.38
2022-12-04T06:47:48.773Z,101121.13
2022-12-04T06:50:58.635Z,101114.81
2022-12-04T06:54:02.046Z,101091.66
2022-12-04T06:57:04.375Z,101120.84
2022-12-04T07:00:07.590Z,101112.94
2022-12-04T07:03:09.843Z,101111.81
2022-12-04T07:06:16.253Z,101114.00
2022-12-04T07:09:18.798Z,101093.31
2022-12-04T07:12:21.450Z,101091.13
2022-12-04T07:15:23.726Z,101099.28
2022-12-04T07:18:26.256Z,101117.28
2022-12-04T07:21:31.450Z,101104.47
2022-12-04T07:24:33.958Z,101138.53
2022-12-04T07:27:36.254Z,101130.09
2022-12-04T07:30:38.937Z,101101.44
2022-12-04T07:33:41.718Z,101127.03
2022-12-04T07:36:44.339Z,101126.50
2022-12-04T07:39:46.638Z,101130.03
2022-12-04T07:42:49.218Z,101133.03
2022-12-04T07:45:51.958Z,101107.94
2022-12-04T07:48:58.724Z,101095.91
2022-12-04T07:52:01.097Z,101124.22
2022-12-04T07:55:05.455Z,101101.87
2022-12-04T07:58:07.583Z,101130.75
2022-12-04T08:01:12.390Z,101130.16
2022-12-04T08:04:15.541Z,101132.28
2022-12-04T08:07:18.584Z,101122.69
2022-12-04T08:10:21.152Z,101096.41
2022-12-04T08:13:23.539Z,101110.19
2022-12-04T08:16:28.063Z,101122.16
2022-12-04T08:19:30.358Z,101132.97
2022-12-04T08:22:32.895Z,101105.16
2022-12-04T08:25:39.493Z,101127.16
2022-12-04T08:28:42.500Z,101101.03
2022-12-04T08:31:44.870Z,101083.38
2022-12-04T08:34:51.164Z,101087.47
2022-12-04T08:37:57.780Z,101118.53
2022-12-04T08:41:05.081Z,101119.06
2022-12-04T08:44:07.535Z,101117.53
2022-12-04T08:47:10.016Z,101128.75
2022-12-04T08:50:13.769Z,101121.72
2022-12-04T08:53:18.516Z,101111.50
2022-12-04T08:56:24.443Z,101131.47
2022-12-04T08:59:28.409Z,101123.47
2022-12-04T09:02:32.754Z,101118.22
2022-12-04T09:05:36.901Z,101132.13
2022-12-04T09:08:40.903Z,101132.03
2022-12-04T09:11:47.669Z,101130.03
2022-12-04T09:14:50.721Z,101117.97
2022-12-04T09:17:58.274Z,101112.50
2022-12-04T09:21:05.930Z,101116.75
2022-12-04T09:24:09.541Z,101114.34
2022-12-04T09:27:14.864Z,101091.34
2022-12-04T09:30:18.498Z,101112.13
2022-12-04T09:33:22.240Z,101100.25
2022-12-04T09:36:25.434Z,101101.34
2022-12-04T09:39:27.695Z,101101.53
2022-12-04T09:42:30.194Z,101098.44
2022-12-04T09:45:50.210Z,101094.72
2022-12-04T09:48:53.902Z,101070.97
2022-12-04T09:52:00.611Z,101065.94
2022-12-04T09:55:05.409Z,101061.69
2022-12-04T09:58:14.170Z,101080.28
2022-12-04T10:01:32.879Z,101055.69
2022-12-04T10:04:35.475Z,101056.69
2022-12-04T10:07:53.376Z,101042.19
2022-12-04T10:11:13.829Z,101063.91
2022-12-04T10:14:50.191Z,101052.06
2022-12-04T10:18:04.375Z,101052.56
2022-12-04T10:21:06.706Z,101048.50
2022-12-04T10:24:36.301Z,101044.25
2022-12-04T10:27:47.047Z,101041.88
2022-12-04T10:30:52.559Z,101033.72
2022-12-04T10:34:13.546Z,101031.56
2022-12-04T10:37:16.605Z,101027.50
2022-12-04T10:40:25.216Z,101026.69
2022-12-04T10:43:45.058Z,101020.22
2022-12-04T10:46:48.226Z,101019.84
2022-12-04T10:49:59.684Z,100989.78
2022-12-04T10:53:01.966Z,101009.34
2022-12-04T10:56:28.628Z,101007.63
2022-12-04T10:59:31.268Z,100974.09
2022-12-04T11:02:34.691Z,100995.03
2022-12-04T11:05:55.408Z,100993.75
2022-12-04T11:08:59.465Z,100984.31
2022-12-04T11:12:16.762Z,100982.03
2022-12-04T11:15:19.399Z,100975.53
2022-12-04T11:18:28.244Z,100972.06
2022-12-04T11:21:32.405Z,100961.41
2022-12-04T11:24:35.689Z,100951.63
2022-12-04T11:27:38.137Z,100954.03
2022-12-04T11:30:40.604Z,100937.56
2022-12-04T11:33:54.537Z,100938.63
2022-12-04T11:36:57.820Z,100939.19
2022-12-04T11:40:03.471Z,100951.94
2022-12-04T11:43:13.915Z,100932.09
2022-12-04T11:46:22.371Z,100940.81
2022-12-04T11:49:26.955Z,100938.53
2022-12-04T11:52:43.698Z,100936.19
2022-12-04T11:56:05.072Z,100933.25
2022-12-04T11:59:32.506Z,100901.09
2022-12-04T12:02:50.405Z,100897.72
2022-12-04T12:05:53.809Z,100915.09
2022-12-04T12:09:14.375Z,100906.38
2022-12-04T12:12:35.293Z,100911.72
2022-12-04T12:16:03.483Z,100884.63
2022-12-04T12:19:33.236Z,100915.81
2022-12-04T12:23:19.871Z,100898.09
2022-12-04T12:26:26.792Z,100905.84
2022-12-04T12:29:32.520Z,100900.47
2022-12-04T12:33:14.333Z,100897.87
2022-12-04T12:36:21.648Z,100922.25
2022-12-04T12:39:31.554Z,100918.44
2022-12-04T12:42:44.881Z,100918.91
2022-12-04T12:46:18.234Z,100897.72
2022-12-04T12:49:32.251Z,100914.63
2022-12-04T12:52:47.867Z,100889.62
2022-12-04T12:55:54.143Z,100911.03
2022-12-04T12:59:00.730Z,100879.69
2022-12-04T13:02:30.278Z,100902.19
2022-12-04T13:05:40.960Z,100902.19
2022-12-04T13:08:52.815Z,100901.22
2022-12-04T13:12:15.812Z,100898.94
2022-12-04T13:15:24.535Z,100875.72
2022-12-04T13:18:32.349Z,100896.62
2022-12-04T13:21:46.842Z,100892.19
2022-12-04T13:24:55.885Z,100872.34
2022-12-04T13:28:31.503Z,100865.28
2022-12-04T13:31:38.416Z,100912.06
2022-12-04T13:35:10.083Z,100904.63
2022-12-04T13:38:28.878Z,100925.75
2022-12-04T13:41:38.809Z,100930.97
2022-12-04T13:44:41.388Z,100922.25
2022-12-04T13:47:43.663Z,100926.72
2022-12-04T13:50:46.240Z,100919.53
2022-12-04T13:53:48.695Z,100888.44
2022-12-04T13:56:55.495Z,100925.78
2022-12-04T14:00:24.472Z,100918.66
2022-12-04T14:03:34.629Z,100914.81
2022-12-04T14:06:41.338Z,100928.25
2022-12-04T14:09:53.258Z,100927.84
2022-12-04T14:13:00.960Z,100940.06
2022-12-04T14:16:15.793Z,100930.88
2022-12-04T14:19:39.193Z,100940.88
2022-12-04T14:22:44.247Z,100941.66
2022-12-04T14:25:46.544Z,100935.97
2022-12-04T14:28:50.447Z,100910.34
2022-12-04T14:31:55.123Z,100945.13
2022-12-04T14:34:58.995Z,100928.97
2022-12-04T14:38:04.064Z,100941.16
2022-12-04T14:41:06.845Z,100941.25
2022-12-04T14:44:25.686Z,100926.50
2022-12-04T14:47:54.327Z,100917.16
2022-12-04T14:50:56.549Z,100934.72
2022-12-04T14:54:17.611Z,100936.47
2022-12-04T14:57:38.276Z,100931.09
2022-12-04T15:00:50.325Z,100941.03
2022-12-04T15:03:59.099Z,100918.84
2022-12-04T15:07:02.540Z,100915.97
2022-12-04T15:10:38.213Z,100916.78
2022-12-04T15:13:41.179Z,100916.78
2022-12-04T15:16:43.602Z,100945.16
2022-12-04T15:19:46.339Z,100954.69
2022-12-04T15:22:49.073Z,100928.34
2022-12-04T15:25:54.528Z,100922.13
2022-12-04T15:29:01.408Z,100938.22
2022-12-04T15:32:12.006Z,100947.47
2022-12-04T15:35:23.266Z,100942.00
2022-12-04T15:38:26.609Z,100949.19
2022-12-04T15:41:30.906Z,100955.19
2022-12-04T15:44:35.349Z,100953.56
2022-12-04T15:47:58.795Z,100925.03
2022-12-04T15:51:07.139Z,100958.50
2022-12-04T15:54:24.492Z,100951.66
2022-12-04T15:57:31.379Z,100935.19
2022-12-04T16:00:45.495Z,100956.38
2022-12-04T16:03:51.266Z,100927.03
2022-12-04T16:06:53.863Z,100958.06
2022-12-04T16:10:03.548Z,100920.75
2022-12-04T16:13:06.783Z,100949.84
2022-12-04T16:16:14.546Z,100948.19
2022-12-04T16:19:29.065Z,100951.84
2022-12-04T16:22:32.138Z,100954.28
2022-12-04T16:25:34.688Z,100949.44
2022-12-04T16:28:37.258Z,100949.44
2022-12-04T16:31:39.595Z,100956.00
2022-12-04T16:34:42.264Z,100951.63
2022-12-04T16:37:44.577Z,100923.16
2022-12-04T16:40:48.536Z,100947.34
2022-12-04T16:43:56.725Z,100956.09
2022-12-04T16:46:59.330Z,100935.94
2022-12-04T16:50:01.701Z,100929.47
2022-12-04T16:53:04.269Z,100952.22
2022-12-04T16:56:06.721Z,100929.47
2022-12-04T16:59:12.201Z,100935.94
2022-12-04T17:02:23.429Z,100953.34
2022-12-04T17:05:29.212Z,100945.72
2022-12-04T17:08:31.999Z,100953.88
2022-12-04T17:11:34.610Z,100952.22
2022-12-04T17:14:36.894Z,100935.94
2022-12-04T17:17:40.200Z,100930.06
2022-12-04T17:20:43.788Z,100929.22
2022-12-04T17:23:46.424Z,100926.19
2022-12-04T17:26:48.805Z,100946.91
2022-12-04T17:29:51.490Z,100963.78
2022-12-04T17:32:53.791Z,100965.13
2022-12-04T17:36:00.309Z,100951.28
2022-12-04T17:39:02.731Z,100939.06
2022-12-04T17:42:05.336Z,100972.53
2022-12-04T17:45:09.537Z,100950.16
2022-12-04T17:48:12.205Z,100945.91
2022-12-04T17:51:20.082Z,100967.06
2022-12-04T17:54:23.044Z,100957.59
2022-12-04T17:57:25.396Z,100970.09
2022-12-04T18:00:28.041Z,100975.56
2022-12-04T18:03:30.816Z,100972.91
2022-12-04T18:06:44.291Z,100963.59
2022-12-04T18:09:48.085Z,100964.19
2022-12-04T18:12:50.607Z,100951.50
2022-12-04T18:15:53.396Z,100941.75
2022-12-04T18:18:57.093Z,100972.16
2022-12-04T18:21:59.926Z,100971.66
2022-12-04T18:25:02.531Z,100973.06
2022-12-04T18:28:05.252Z,100954.34
2022-12-04T18:31:08.677Z,100986.47
2022-12-04T18:34:14.276Z,100986.47
2022-12-04T18:37:16.571Z,100986.47
2022-12-04T18:40:22.131Z,100988.69
2022-12-04T18:43:24.538Z,100987.62
2022-12-04T18:46:27.251Z,100983.38
2022-12-04T18:49:29.725Z,100990.69
2022-12-04T18:52:35.792Z,100996.69
2022-12-04T18:55:38.571Z,100997.06
2022-12-04T18:58:41.430Z,100998.41
2022-12-04T19:01:44.250Z,100973.13
2022-12-04T19:04:46.897Z,100969.88
2022-12-04T19:07:50.441Z,100988.84
2022-12-04T19:10:53.050Z,100959.50
2022-12-04T19:13:55.745Z,100983.22
2022-12-04T19:16:58.491Z,100983.44
2022-12-04T19:20:01.620Z,100987.78
2022-12-04T19:23:04.224Z,100976.34
2022-12-04T19:26:06.724Z,100992.31
2022-12-04T19:29:12.887Z,100962.91
2022-12-04T19:32:15.321Z,100976.09
2022-12-04T19:35:17.933Z,100987.94
2022-12-04T19:38:20.221Z,100962.91
2022-12-04T19:41:25.826Z,100991.19
2022-12-04T19:47:50.801Z,100988.69
2022-12-04T19:50:54.211Z,100984.00
2022-12-04T19:53:56.773Z,100991.34
2022-12-04T19:56:59.013Z,100995.78
2022-12-04T20:00:02.113Z,100991.94
2022-12-04T20:03:13.917Z,100970.75
2022-12-04T20:06:19.375Z,100992.44
2022-12-04T20:09:22.420Z,100994.69
2022-12-04T20:12:25.052Z,101004.56
2022-12-04T20:15:27.260Z,100992.00
2022-12-04T20:18:30.186Z,100977.41
2022-12-04T20:21:32.843Z,101003.47
2022-12-04T20:24:35.659Z,100976.28
2022-12-04T20:27:37.960Z,100980.66
2022-12-04T20:30:40.906Z,100981.25
2022-12-04T20:33:44.160Z,101006.28
2022-12-04T20:36:51.224Z,101008.50
2022-12-04T20:39:56.898Z,100976.72
2022-12-04T20:42:59.711Z,101024.13
2022-12-04T20:46:02.176Z,101025.53
2022-12-04T20:49:08.010Z,100997.81
2022-12-04T20:52:11.182Z,101015.16
2022-12-04T20:55:13.741Z,101029.94
2022-12-04T20:58:16.020Z,101021.28
2022-12-04T21:01:19.392Z,100958.84
2022-12-04T21:04:22.126Z,101027.84
2022-12-04T21:07:24.857Z,101027.03
2022-12-04T21:10:27.262Z,100996.28
2022-12-04T21:13:48.388Z,100994.66
2022-12-04T21:16:51.076Z,101017.47
2022-12-04T21:19:53.642Z,100990.88
2022-12-04T21:22:56.119Z,101015.38
2022-12-04T21:25:58.651Z,101017.84
2022-12-04T21:29:02.272Z,101020.84
2022-12-04T21:32:06.229Z,100993.13
2022-12-04T21:35:08.818Z,101023.66
2022-12-04T21:38:11.303Z,100988.25
2022-12-04T21:41:36.613Z,101012.19
2022-12-04T21:44:39.218Z,101016.91
2022-12-04T21:47:41.546Z,101025.91
2022-12-04T21:50:44.147Z,101027.78
2022-12-04T21:53:46.473Z,101011.13
2022-12-04T21:56:48.999Z,100997.56
2022-12-04T21:59:52.382Z,101006.28
2022-12-04T22:02:54.996Z,100997.62
2022-12-04T22:05:59.994Z,101012.66
2022-12-04T22:09:03.945Z,101011.06
2022-12-04T22:12:26.275Z,101029.28
2022-12-04T22:15:29.107Z,101031.22
2022-12-04T22:18:33.596Z,101009.22
2022-12-04T22:21:35.841Z,101015.47
2022-12-04T22:24:38.378Z,101010.31
2022-12-04T22:27:40.732Z,101030.41
2022-12-04T22:30:43.607Z,101027.16
2022-12-04T22:33:48.204Z,100998.88
2022-12-04T22:36:50.893Z,101027.41
2022-12-04T22:39:53.163Z,100992.81
2022-12-04T22:42:55.686Z,100994.53
2022-12-04T22:45:58.863Z,101021.13
2022-12-04T22:49:01.437Z,101012.09
2022-12-04T22:52:03.829Z,100993.41
2022-12-04T22:55:06.571Z,101022.25
2022-12-04T22:58:08.802Z,100998.34
2022-12-04T23:01:22.675Z,101022.06
2022-12-04T23:04:24.961Z,101019.38
2022-12-04T23:07:27.462Z,101007.69
2022-12-04T23:10:29.810Z,101027.09
2022-12-04T23:13:32.384Z,101004.25
2022-12-04T23:16:37.096Z,100994.72
2022-12-04T23:19:39.695Z,100990.88
2022-12-04T23:22:41.961Z,100985.16
2022-12-04T23:25:44.468Z,101008.81
2022-12-04T23:28:47.391Z,100977.78
2022-12-04T23:31:50.006Z,101000.69
2022-12-04T23:34:53.131Z,100981.66
2022-12-04T23:37:55.659Z,101009.97
2022-12-04T23:41:03.000Z,101001.53
2022-12-04T23:44:05.519Z,101009.44
2022-12-04T23:47:07.732Z,100986.09
2022-12-04T23:50:10.598Z,101016.56
2022-12-04T23:53:13.114Z,100993.16
2022-12-04T23:56:17.425Z,100990.16
2022-12-04T23:59:21.324Z,101020.37
